sensor_id;sensor_type;location;lat;lon;timestamp;P1;durP1;ratioP1;P2;durP2;ratioP2
78365;SDS011;67641;59.864;30.464;2023-09-19T00:00:22;7.50;;;3.17;;
78365;SDS011;67641;59.864;30.464;2023-09-19T00:02:55;7.03;;;3.13;;
78365;SDS011;67641;59.864;30.464;2023-09-19T00:05:23;6.25;;;3.03;;
78365;SDS011;67641;59.864;30.464;2023-09-19T00:07:50;10.18;;;3.30;;
78365;SDS011;67641;59.864;30.464;2023-09-19T00:10:24;7.65;;;3.20;;
78365;SDS011;67641;59.864;30.464;2023-09-19T00:12:53;6.30;;;3.10;;
78365;SDS011;67641;59.864;30.464;2023-09-19T00:15:25;12.13;;;3.30;;
78365;SDS011;67641;59.864;30.464;2023-09-19T00:21:31;7.03;;;3.08;;
78365;SDS011;67641;59.864;30.464;2023-09-19T00:23:58;7.20;;;3.08;;
78365;SDS011;67641;59.864;30.464;2023-09-19T00:26:25;6.72;;;3.20;;
78365;SDS011;67641;59.864;30.464;2023-09-19T00:28:54;7.32;;;3.17;;
78365;SDS011;67641;59.864;30.464;2023-09-19T00:31:23;7.97;;;3.08;;
78365;SDS011;67641;59.864;30.464;2023-09-19T00:33:49;7.88;;;3.13;;
78365;SDS011;67641;59.864;30.464;2023-09-19T00:36:16;7.20;;;3.08;;
78365;SDS011;67641;59.864;30.464;2023-09-19T00:38:42;8.32;;;3.38;;
78365;SDS011;67641;59.864;30.464;2023-09-19T00:41:10;6.25;;;2.85;;
78365;SDS011;67641;59.864;30.464;2023-09-19T00:43:38;7.95;;;3.55;;
78365;SDS011;67641;59.864;30.464;2023-09-19T00:46:06;7.18;;;2.95;;
78365;SDS011;67641;59.864;30.464;2023-09-19T00:48:36;8.30;;;3.05;;
78365;SDS011;67641;59.864;30.464;2023-09-19T00:51:09;10.98;;;3.10;;
78365;SDS011;67641;59.864;30.464;2023-09-19T00:53:36;8.15;;;3.00;;
78365;SDS011;67641;59.864;30.464;2023-09-19T00:56:05;8.05;;;3.65;;
78365;SDS011;67641;59.864;30.464;2023-09-19T00:58:33;12.68;;;3.60;;
78365;SDS011;67641;59.864;30.464;2023-09-19T01:01:01;6.72;;;3.33;;
78365;SDS011;67641;59.864;30.464;2023-09-19T01:03:29;7.00;;;3.33;;
78365;SDS011;67641;59.864;30.464;2023-09-19T01:05:56;8.43;;;3.30;;
78365;SDS011;67641;59.864;30.464;2023-09-19T01:08:22;5.40;;;2.58;;
78365;SDS011;67641;59.864;30.464;2023-09-19T01:10:52;7.70;;;2.95;;
78365;SDS011;67641;59.864;30.464;2023-09-19T01:21:47;7.32;;;3.00;;
78365;SDS011;67641;59.864;30.464;2023-09-19T01:30:02;6.07;;;2.60;;
78365;SDS011;67641;59.864;30.464;2023-09-19T01:32:39;10.70;;;2.97;;
78365;SDS011;67641;59.864;30.464;2023-09-19T01:35:07;5.78;;;2.95;;
78365;SDS011;67641;59.864;30.464;2023-09-19T01:37:38;4.72;;;2.78;;
78365;SDS011;67641;59.864;30.464;2023-09-19T01:40:06;5.85;;;2.58;;
78365;SDS011;67641;59.864;30.464;2023-09-19T01:42:50;10.02;;;3.33;;
78365;SDS011;67641;59.864;30.464;2023-09-19T01:49:06;7.38;;;2.92;;
78365;SDS011;67641;59.864;30.464;2023-09-19T01:52:11;6.25;;;2.83;;
78365;SDS011;67641;59.864;30.464;2023-09-19T01:54:47;6.10;;;2.60;;
78365;SDS011;67641;59.864;30.464;2023-09-19T01:57:22;6.95;;;2.45;;
78365;SDS011;67641;59.864;30.464;2023-09-19T02:00:03;7.20;;;3.00;;
78365;SDS011;67641;59.864;30.464;2023-09-19T02:02:36;5.95;;;2.78;;
78365;SDS011;67641;59.864;30.464;2023-09-19T02:05:08;6.45;;;2.90;;
78365;SDS011;67641;59.864;30.464;2023-09-19T02:07:35;6.40;;;2.63;;
78365;SDS011;67641;59.864;30.464;2023-09-19T02:10:07;7.68;;;2.92;;
78365;SDS011;67641;59.864;30.464;2023-09-19T02:12:35;7.30;;;2.83;;
78365;SDS011;67641;59.864;30.464;2023-09-19T02:15:02;7.65;;;3.00;;
78365;SDS011;67641;59.864;30.464;2023-09-19T02:17:32;8.00;;;2.67;;
78365;SDS011;67641;59.864;30.464;2023-09-19T02:19:59;7.47;;;3.03;;
78365;SDS011;67641;59.864;30.464;2023-09-19T02:22:26;8.20;;;3.40;;
78365;SDS011;67641;59.864;30.464;2023-09-19T02:24:53;9.82;;;2.63;;
78365;SDS011;67641;59.864;30.464;2023-09-19T02:27:20;6.55;;;2.83;;
78365;SDS011;67641;59.864;30.464;2023-09-19T02:29:46;6.70;;;2.70;;
78365;SDS011;67641;59.864;30.464;2023-09-19T02:32:15;5.47;;;2.72;;
78365;SDS011;67641;59.864;30.464;2023-09-19T02:34:44;6.38;;;2.35;;
78365;SDS011;67641;59.864;30.464;2023-09-19T02:37:11;6.78;;;2.90;;
78365;SDS011;67641;59.864;30.464;2023-09-19T02:39:39;6.07;;;3.03;;
78365;SDS011;67641;59.864;30.464;2023-09-19T02:42:05;9.38;;;2.88;;
78365;SDS011;67641;59.864;30.464;2023-09-19T02:44:32;12.35;;;2.72;;
78365;SDS011;67641;59.864;30.464;2023-09-19T02:46:59;5.80;;;3.20;;
78365;SDS011;67641;59.864;30.464;2023-09-19T02:49:26;7.07;;;2.80;;
78365;SDS011;67641;59.864;30.464;2023-09-19T02:51:52;8.57;;;2.78;;
78365;SDS011;67641;59.864;30.464;2023-09-19T02:54:19;11.23;;;2.80;;
78365;SDS011;67641;59.864;30.464;2023-09-19T02:56:46;7.40;;;2.78;;
78365;SDS011;67641;59.864;30.464;2023-09-19T02:59:12;7.07;;;2.65;;
78365;SDS011;67641;59.864;30.464;2023-09-19T03:01:42;6.07;;;2.70;;
78365;SDS011;67641;59.864;30.464;2023-09-19T03:04:09;6.22;;;3.13;;
78365;SDS011;67641;59.864;30.464;2023-09-19T03:06:37;5.60;;;2.80;;
78365;SDS011;67641;59.864;30.464;2023-09-19T03:09:06;6.85;;;2.92;;
78365;SDS011;67641;59.864;30.464;2023-09-19T03:11:39;8.43;;;2.72;;
78365;SDS011;67641;59.864;30.464;2023-09-19T03:14:07;7.82;;;2.72;;
78365;SDS011;67641;59.864;30.464;2023-09-19T03:16:35;8.50;;;2.67;;
78365;SDS011;67641;59.864;30.464;2023-09-19T03:19:04;7.72;;;3.35;;
78365;SDS011;67641;59.864;30.464;2023-09-19T03:21:31;5.05;;;2.58;;
78365;SDS011;67641;59.864;30.464;2023-09-19T03:23:57;12.90;;;2.80;;
78365;SDS011;67641;59.864;30.464;2023-09-19T03:26:23;6.57;;;2.95;;
78365;SDS011;67641;59.864;30.464;2023-09-19T03:28:53;10.77;;;2.78;;
78365;SDS011;67641;59.864;30.464;2023-09-19T03:31:19;14.80;;;3.63;;
78365;SDS011;67641;59.864;30.464;2023-09-19T03:33:46;11.13;;;3.55;;
78365;SDS011;67641;59.864;30.464;2023-09-19T03:36:12;17.38;;;3.10;;
78365;SDS011;67641;59.864;30.464;2023-09-19T03:38:42;8.65;;;3.05;;
78365;SDS011;67641;59.864;30.464;2023-09-19T03:41:08;9.70;;;2.92;;
78365;SDS011;67641;59.864;30.464;2023-09-19T03:43:35;8.02;;;3.15;;
78365;SDS011;67641;59.864;30.464;2023-09-19T03:46:01;16.42;;;3.78;;
78365;SDS011;67641;59.864;30.464;2023-09-19T03:48:31;26.90;;;4.00;;
78365;SDS011;67641;59.864;30.464;2023-09-19T03:50:58;11.20;;;2.78;;
78365;SDS011;67641;59.864;30.464;2023-09-19T03:53:24;5.68;;;2.88;;
78365;SDS011;67641;59.864;30.464;2023-09-19T03:55:51;7.40;;;3.08;;
78365;SDS011;67641;59.864;30.464;2023-09-19T03:58:17;9.68;;;3.33;;
78365;SDS011;67641;59.864;30.464;2023-09-19T04:00:44;12.93;;;3.65;;
78365;SDS011;67641;59.864;30.464;2023-09-19T04:03:11;9.65;;;3.55;;
78365;SDS011;67641;59.864;30.464;2023-09-19T04:05:45;10.75;;;3.10;;
78365;SDS011;67641;59.864;30.464;2023-09-19T04:08:12;13.82;;;2.92;;
78365;SDS011;67641;59.864;30.464;2023-09-19T04:10:43;13.68;;;3.20;;
78365;SDS011;67641;59.864;30.464;2023-09-19T04:13:09;20.70;;;3.90;;
78365;SDS011;67641;59.864;30.464;2023-09-19T04:15:36;24.10;;;3.97;;
78365;SDS011;67641;59.864;30.464;2023-09-19T04:18:03;45.33;;;5.70;;
78365;SDS011;67641;59.864;30.464;2023-09-19T04:20:30;42.00;;;6.88;;
78365;SDS011;67641;59.864;30.464;2023-09-19T04:22:56;18.48;;;3.78;;
78365;SDS011;67641;59.864;30.464;2023-09-19T04:25:22;14.00;;;4.30;;
78365;SDS011;67641;59.864;30.464;2023-09-19T04:27:49;11.52;;;3.97;;
78365;SDS011;67641;59.864;30.464;2023-09-19T04:30:15;11.52;;;3.20;;
78365;SDS011;67641;59.864;30.464;2023-09-19T04:32:42;10.82;;;3.53;;
78365;SDS011;67641;59.864;30.464;2023-09-19T04:35:09;15.38;;;3.40;;
78365;SDS011;67641;59.864;30.464;2023-09-19T04:37:37;15.10;;;3.72;;
78365;SDS011;67641;59.864;30.464;2023-09-19T04:40:07;13.30;;;3.72;;
78365;SDS011;67641;59.864;30.464;2023-09-19T04:42:43;15.65;;;3.35;;
78365;SDS011;67641;59.864;30.464;2023-09-19T04:45:10;12.30;;;3.60;;
78365;SDS011;67641;59.864;30.464;2023-09-19T04:47:37;16.48;;;3.72;;
78365;SDS011;67641;59.864;30.464;2023-09-19T04:50:09;23.42;;;3.90;;
78365;SDS011;67641;59.864;30.464;2023-09-19T04:52:40;18.00;;;3.92;;
78365;SDS011;67641;59.864;30.464;2023-09-19T04:55:09;15.77;;;3.90;;
78365;SDS011;67641;59.864;30.464;2023-09-19T04:57:43;13.13;;;3.50;;
78365;SDS011;67641;59.864;30.464;2023-09-19T05:00:13;17.92;;;4.18;;
78365;SDS011;67641;59.864;30.464;2023-09-19T05:02:42;19.13;;;4.15;;
78365;SDS011;67641;59.864;30.464;2023-09-19T05:05:09;15.23;;;3.67;;
78365;SDS011;67641;59.864;30.464;2023-09-19T05:07:38;14.43;;;3.80;;
78365;SDS011;67641;59.864;30.464;2023-09-19T05:10:06;10.18;;;3.63;;
78365;SDS011;67641;59.864;30.464;2023-09-19T05:12:33;10.88;;;3.92;;
78365;SDS011;67641;59.864;30.464;2023-09-19T05:15:02;14.45;;;4.00;;
78365;SDS011;67641;59.864;30.464;2023-09-19T05:17:35;11.05;;;3.85;;
78365;SDS011;67641;59.864;30.464;2023-09-19T05:20:02;12.63;;;3.75;;
78365;SDS011;67641;59.864;30.464;2023-09-19T05:22:32;11.70;;;3.50;;
78365;SDS011;67641;59.864;30.464;2023-09-19T05:24:58;13.07;;;3.53;;
78365;SDS011;67641;59.864;30.464;2023-09-19T05:27:25;11.27;;;4.13;;
78365;SDS011;67641;59.864;30.464;2023-09-19T05:29:51;13.38;;;3.75;;
78365;SDS011;67641;59.864;30.464;2023-09-19T05:32:19;13.60;;;3.90;;
78365;SDS011;67641;59.864;30.464;2023-09-19T05:34:45;11.50;;;3.60;;
78365;SDS011;67641;59.864;30.464;2023-09-19T05:37:19;16.17;;;4.00;;
78365;SDS011;67641;59.864;30.464;2023-09-19T05:39:45;13.80;;;3.58;;
78365;SDS011;67641;59.864;30.464;2023-09-19T05:42:12;13.07;;;3.92;;
78365;SDS011;67641;59.864;30.464;2023-09-19T05:44:39;11.80;;;3.83;;
78365;SDS011;67641;59.864;30.464;2023-09-19T05:47:06;11.35;;;3.75;;
78365;SDS011;67641;59.864;30.464;2023-09-19T05:49:35;12.70;;;3.97;;
78365;SDS011;67641;59.864;30.464;2023-09-19T05:52:07;13.88;;;3.97;;
78365;SDS011;67641;59.864;30.464;2023-09-19T05:54:34;11.65;;;3.65;;
78365;SDS011;67641;59.864;30.464;2023-09-19T05:57:00;11.52;;;3.53;;
78365;SDS011;67641;59.864;30.464;2023-09-19T05:59:27;14.52;;;3.80;;
78365;SDS011;67641;59.864;30.464;2023-09-19T06:01:54;14.13;;;3.63;;
78365;SDS011;67641;59.864;30.464;2023-09-19T06:04:21;18.60;;;4.57;;
78365;SDS011;67641;59.864;30.464;2023-09-19T06:06:47;13.73;;;3.60;;
78365;SDS011;67641;59.864;30.464;2023-09-19T06:09:14;15.18;;;3.97;;
78365;SDS011;67641;59.864;30.464;2023-09-19T06:11:41;9.80;;;3.72;;
78365;SDS011;67641;59.864;30.464;2023-09-19T06:14:08;10.48;;;3.63;;
78365;SDS011;67641;59.864;30.464;2023-09-19T06:16:36;13.73;;;3.72;;
78365;SDS011;67641;59.864;30.464;2023-09-19T06:19:07;11.98;;;3.60;;
78365;SDS011;67641;59.864;30.464;2023-09-19T06:21:34;10.43;;;3.92;;
78365;SDS011;67641;59.864;30.464;2023-09-19T06:24:01;8.68;;;3.40;;
78365;SDS011;67641;59.864;30.464;2023-09-19T06:26:28;10.60;;;3.58;;
78365;SDS011;67641;59.864;30.464;2023-09-19T06:28:56;12.95;;;4.00;;
78365;SDS011;67641;59.864;30.464;2023-09-19T06:31:23;10.45;;;3.60;;
78365;SDS011;67641;59.864;30.464;2023-09-19T06:33:52;13.20;;;4.20;;
78365;SDS011;67641;59.864;30.464;2023-09-19T06:36:18;16.10;;;4.25;;
78365;SDS011;67641;59.864;30.464;2023-09-19T06:38:45;9.57;;;3.53;;
78365;SDS011;67641;59.864;30.464;2023-09-19T06:41:12;13.27;;;4.25;;
78365;SDS011;67641;59.864;30.464;2023-09-19T06:43:40;13.68;;;3.92;;
78365;SDS011;67641;59.864;30.464;2023-09-19T06:46:06;11.20;;;3.40;;
78365;SDS011;67641;59.864;30.464;2023-09-19T06:48:33;9.70;;;3.10;;
78365;SDS011;67641;59.864;30.464;2023-09-19T06:50:59;10.52;;;3.78;;
78365;SDS011;67641;59.864;30.464;2023-09-19T06:53:34;12.20;;;3.45;;
78365;SDS011;67641;59.864;30.464;2023-09-19T06:56:02;10.57;;;3.40;;
78365;SDS011;67641;59.864;30.464;2023-09-19T06:58:29;12.10;;;3.60;;
78365;SDS011;67641;59.864;30.464;2023-09-19T07:00:57;12.77;;;3.33;;
78365;SDS011;67641;59.864;30.464;2023-09-19T07:03:23;12.43;;;3.83;;
78365;SDS011;67641;59.864;30.464;2023-09-19T07:05:52;11.65;;;3.50;;
78365;SDS011;67641;59.864;30.464;2023-09-19T07:08:21;11.95;;;3.72;;
78365;SDS011;67641;59.864;30.464;2023-09-19T07:10:49;9.30;;;3.38;;
78365;SDS011;67641;59.864;30.464;2023-09-19T07:13:18;16.42;;;3.70;;
78365;SDS011;67641;59.864;30.464;2023-09-19T07:15:44;8.27;;;3.00;;
78365;SDS011;67641;59.864;30.464;2023-09-19T07:18:16;10.18;;;3.22;;
78365;SDS011;67641;59.864;30.464;2023-09-19T07:20:43;10.32;;;3.30;;
78365;SDS011;67641;59.864;30.464;2023-09-19T07:23:16;10.43;;;3.15;;
78365;SDS011;67641;59.864;30.464;2023-09-19T07:25:46;10.38;;;3.42;;
78365;SDS011;67641;59.864;30.464;2023-09-19T07:28:14;7.90;;;3.08;;
78365;SDS011;67641;59.864;30.464;2023-09-19T07:30:41;6.70;;;3.10;;
78365;SDS011;67641;59.864;30.464;2023-09-19T07:33:08;9.85;;;3.03;;
78365;SDS011;67641;59.864;30.464;2023-09-19T07:35:37;9.27;;;3.47;;
78365;SDS011;67641;59.864;30.464;2023-09-19T07:38:07;10.10;;;3.33;;
78365;SDS011;67641;59.864;30.464;2023-09-19T07:40:34;7.97;;;3.47;;
78365;SDS011;67641;59.864;30.464;2023-09-19T07:43:00;9.63;;;3.33;;
78365;SDS011;67641;59.864;30.464;2023-09-19T07:45:32;7.93;;;3.03;;
78365;SDS011;67641;59.864;30.464;2023-09-19T07:47:59;11.13;;;3.70;;
78365;SDS011;67641;59.864;30.464;2023-09-19T07:50:29;10.63;;;3.92;;
78365;SDS011;67641;59.864;30.464;2023-09-19T07:52:56;19.95;;;4.18;;
78365;SDS011;67641;59.864;30.464;2023-09-19T07:55:22;11.63;;;3.38;;
78365;SDS011;67641;59.864;30.464;2023-09-19T07:57:51;16.75;;;3.75;;
78365;SDS011;67641;59.864;30.464;2023-09-19T08:00:18;9.65;;;3.58;;
78365;SDS011;67641;59.864;30.464;2023-09-19T08:02:44;16.15;;;4.05;;
78365;SDS011;67641;59.864;30.464;2023-09-19T08:05:11;13.90;;;3.88;;
78365;SDS011;67641;59.864;30.464;2023-09-19T08:07:42;13.38;;;4.40;;
78365;SDS011;67641;59.864;30.464;2023-09-19T08:12:42;11.13;;;4.00;;
78365;SDS011;67641;59.864;30.464;2023-09-19T08:15:12;16.40;;;4.57;;
78365;SDS011;67641;59.864;30.464;2023-09-19T08:17:39;9.07;;;3.30;;
78365;SDS011;67641;59.864;30.464;2023-09-19T08:20:05;9.52;;;3.45;;
78365;SDS011;67641;59.864;30.464;2023-09-19T08:22:32;11.93;;;3.80;;
78365;SDS011;67641;59.864;30.464;2023-09-19T08:24:58;11.45;;;3.75;;
78365;SDS011;67641;59.864;30.464;2023-09-19T08:27:25;12.02;;;3.83;;
78365;SDS011;67641;59.864;30.464;2023-09-19T08:29:53;18.25;;;4.35;;
78365;SDS011;67641;59.864;30.464;2023-09-19T08:32:19;8.35;;;3.70;;
78365;SDS011;67641;59.864;30.464;2023-09-19T08:34:49;10.60;;;3.65;;
78365;SDS011;67641;59.864;30.464;2023-09-19T08:37:16;15.00;;;3.95;;
78365;SDS011;67641;59.864;30.464;2023-09-19T08:39:42;12.27;;;4.07;;
78365;SDS011;67641;59.864;30.464;2023-09-19T08:42:10;10.63;;;3.33;;
78365;SDS011;67641;59.864;30.464;2023-09-19T08:44:38;11.10;;;3.78;;
78365;SDS011;67641;59.864;30.464;2023-09-19T08:47:08;10.30;;;3.55;;
78365;SDS011;67641;59.864;30.464;2023-09-19T08:52:28;12.90;;;3.55;;
78365;SDS011;67641;59.864;30.464;2023-09-19T08:55:13;16.65;;;3.88;;
78365;SDS011;67641;59.864;30.464;2023-09-19T08:57:46;12.80;;;3.88;;
78365;SDS011;67641;59.864;30.464;2023-09-19T09:00:18;13.40;;;3.47;;
78365;SDS011;67641;59.864;30.464;2023-09-19T09:02:46;11.30;;;3.47;;
78365;SDS011;67641;59.864;30.464;2023-09-19T09:05:13;10.88;;;3.47;;
78365;SDS011;67641;59.864;30.464;2023-09-19T09:07:41;9.40;;;3.90;;
78365;SDS011;67641;59.864;30.464;2023-09-19T09:10:09;12.63;;;4.25;;
78365;SDS011;67641;59.864;30.464;2023-09-19T09:12:35;8.57;;;3.40;;
78365;SDS011;67641;59.864;30.464;2023-09-19T09:15:03;10.23;;;3.78;;
78365;SDS011;67641;59.864;30.464;2023-09-19T09:17:29;10.20;;;3.53;;
78365;SDS011;67641;59.864;30.464;2023-09-19T09:19:56;10.07;;;3.58;;
78365;SDS011;67641;59.864;30.464;2023-09-19T09:22:22;9.48;;;3.65;;
78365;SDS011;67641;59.864;30.464;2023-09-19T09:24:52;12.93;;;3.65;;
78365;SDS011;67641;59.864;30.464;2023-09-19T09:27:19;10.07;;;3.42;;
78365;SDS011;67641;59.864;30.464;2023-09-19T09:29:49;10.68;;;3.80;;
78365;SDS011;67641;59.864;30.464;2023-09-19T09:32:17;9.60;;;3.50;;
78365;SDS011;67641;59.864;30.464;2023-09-19T09:34:50;9.77;;;3.60;;
78365;SDS011;67641;59.864;30.464;2023-09-19T09:37:26;8.95;;;3.78;;
78365;SDS011;67641;59.864;30.464;2023-09-19T09:39:56;10.40;;;3.60;;
78365;SDS011;67641;59.864;30.464;2023-09-19T09:42:34;10.05;;;3.53;;
78365;SDS011;67641;59.864;30.464;2023-09-19T09:45:19;10.48;;;3.15;;
78365;SDS011;67641;59.864;30.464;2023-09-19T09:47:59;12.93;;;3.55;;
78365;SDS011;67641;59.864;30.464;2023-09-19T09:50:29;13.52;;;3.22;;
78365;SDS011;67641;59.864;30.464;2023-09-19T09:53:34;8.80;;;3.33;;
78365;SDS011;67641;59.864;30.464;2023-09-19T09:56:09;10.27;;;3.22;;
78365;SDS011;67641;59.864;30.464;2023-09-19T09:58:38;9.73;;;3.58;;
78365;SDS011;67641;59.864;30.464;2023-09-19T10:01:20;11.20;;;3.35;;
78365;SDS011;67641;59.864;30.464;2023-09-19T10:03:56;8.38;;;3.13;;
78365;SDS011;67641;59.864;30.464;2023-09-19T10:06:23;13.18;;;3.90;;
78365;SDS011;67641;59.864;30.464;2023-09-19T10:11:43;9.23;;;3.08;;
78365;SDS011;67641;59.864;30.464;2023-09-19T10:14:17;11.65;;;3.47;;
78365;SDS011;67641;59.864;30.464;2023-09-19T10:16:46;20.55;;;4.07;;
78365;SDS011;67641;59.864;30.464;2023-09-19T10:19:21;9.77;;;3.15;;
78365;SDS011;67641;59.864;30.464;2023-09-19T10:22:12;9.27;;;3.40;;
78365;SDS011;67641;59.864;30.464;2023-09-19T10:24:46;6.53;;;3.10;;
78365;SDS011;67641;59.864;30.464;2023-09-19T10:27:17;9.43;;;3.45;;
78365;SDS011;67641;59.864;30.464;2023-09-19T10:29:45;8.10;;;2.95;;
78365;SDS011;67641;59.864;30.464;2023-09-19T10:32:19;8.85;;;3.30;;
78365;SDS011;67641;59.864;30.464;2023-09-19T10:34:49;10.38;;;3.30;;
78365;SDS011;67641;59.864;30.464;2023-09-19T10:37:16;6.78;;;3.13;;
78365;SDS011;67641;59.864;30.464;2023-09-19T10:39:46;7.47;;;3.20;;
78365;SDS011;67641;59.864;30.464;2023-09-19T10:42:15;11.73;;;4.00;;
78365;SDS011;67641;59.864;30.464;2023-09-19T10:44:45;8.10;;;3.50;;
78365;SDS011;67641;59.864;30.464;2023-09-19T10:47:15;7.90;;;3.22;;
78365;SDS011;67641;59.864;30.464;2023-09-19T10:49:44;10.30;;;3.47;;
78365;SDS011;67641;59.864;30.464;2023-09-19T10:52:15;9.35;;;3.80;;
78365;SDS011;67641;59.864;30.464;2023-09-19T10:54:46;8.98;;;3.50;;
78365;SDS011;67641;59.864;30.464;2023-09-19T10:57:23;13.05;;;3.75;;
78365;SDS011;67641;59.864;30.464;2023-09-19T11:00:03;16.27;;;4.30;;
78365;SDS011;67641;59.864;30.464;2023-09-19T11:05:37;11.45;;;3.90;;
78365;SDS011;67641;59.864;30.464;2023-09-19T11:08:09;10.88;;;3.90;;
78365;SDS011;67641;59.864;30.464;2023-09-19T11:10:44;10.15;;;3.33;;
78365;SDS011;67641;59.864;30.464;2023-09-19T11:13:27;7.65;;;3.30;;
78365;SDS011;67641;59.864;30.464;2023-09-19T11:26:50;10.23;;;4.25;;
78365;SDS011;67641;59.864;30.464;2023-09-19T11:31:51;13.45;;;3.95;;
78365;SDS011;67641;59.864;30.464;2023-09-19T11:40:05;8.43;;;4.53;;
78365;SDS011;67641;59.864;30.464;2023-09-19T11:48:23;11.70;;;4.97;;
78365;SDS011;67641;59.864;30.464;2023-09-19T11:50:53;8.15;;;3.67;;
78365;SDS011;67641;59.864;30.464;2023-09-19T11:53:21;10.27;;;4.60;;
78365;SDS011;67641;59.864;30.464;2023-09-19T11:55:50;8.95;;;4.07;;
78365;SDS011;67641;59.864;30.464;2023-09-19T11:58:18;10.95;;;4.63;;
78365;SDS011;67641;59.864;30.464;2023-09-19T12:00:45;8.43;;;4.10;;
78365;SDS011;67641;59.864;30.464;2023-09-19T12:03:21;11.27;;;4.20;;
78365;SDS011;67641;59.864;30.464;2023-09-19T12:05:48;6.72;;;3.35;;
78365;SDS011;67641;59.864;30.464;2023-09-19T12:08:15;13.93;;;4.50;;
78365;SDS011;67641;59.864;30.464;2023-09-19T12:10:47;16.20;;;4.07;;
78365;SDS011;67641;59.864;30.464;2023-09-19T12:13:21;8.35;;;4.20;;
78365;SDS011;67641;59.864;30.464;2023-09-19T12:15:47;10.77;;;4.18;;
78365;SDS011;67641;59.864;30.464;2023-09-19T12:18:28;8.32;;;4.22;;
78365;SDS011;67641;59.864;30.464;2023-09-19T12:20:55;10.27;;;3.90;;
78365;SDS011;67641;59.864;30.464;2023-09-19T12:23:24;11.20;;;4.70;;
78365;SDS011;67641;59.864;30.464;2023-09-19T12:25:52;7.45;;;4.13;;
78365;SDS011;67641;59.864;30.464;2023-09-19T12:28:24;8.90;;;4.63;;
78365;SDS011;67641;59.864;30.464;2023-09-19T12:30:53;12.48;;;4.38;;
78365;SDS011;67641;59.864;30.464;2023-09-19T12:33:22;12.07;;;3.88;;
78365;SDS011;67641;59.864;30.464;2023-09-19T12:35:51;17.67;;;4.43;;
78365;SDS011;67641;59.864;30.464;2023-09-19T12:38:24;7.43;;;3.60;;
78365;SDS011;67641;59.864;30.464;2023-09-19T12:40:51;11.82;;;4.40;;
78365;SDS011;67641;59.864;30.464;2023-09-19T12:43:18;9.27;;;4.70;;
78365;SDS011;67641;59.864;30.464;2023-09-19T12:45:45;12.55;;;4.28;;
78365;SDS011;67641;59.864;30.464;2023-09-19T12:48:19;8.95;;;3.75;;
78365;SDS011;67641;59.864;30.464;2023-09-19T12:53:45;13.27;;;4.10;;
78365;SDS011;67641;59.864;30.464;2023-09-19T12:56:15;11.68;;;4.03;;
78365;SDS011;67641;59.864;30.464;2023-09-19T12:58:53;10.23;;;3.55;;
78365;SDS011;67641;59.864;30.464;2023-09-19T13:01:21;12.82;;;4.57;;
78365;SDS011;67641;59.864;30.464;2023-09-19T13:06:45;7.80;;;3.70;;
78365;SDS011;67641;59.864;30.464;2023-09-19T13:09:15;12.35;;;4.65;;
78365;SDS011;67641;59.864;30.464;2023-09-19T13:11:43;13.93;;;3.90;;
78365;SDS011;67641;59.864;30.464;2023-09-19T13:16:57;10.13;;;3.70;;
78365;SDS011;67641;59.864;30.464;2023-09-19T13:19:43;9.90;;;3.88;;
78365;SDS011;67641;59.864;30.464;2023-09-19T13:22:42;7.00;;;3.40;;
78365;SDS011;67641;59.864;30.464;2023-09-19T13:25:12;7.88;;;3.40;;
78365;SDS011;67641;59.864;30.464;2023-09-19T13:27:49;10.38;;;3.40;;
78365;SDS011;67641;59.864;30.464;2023-09-19T13:30:18;10.18;;;4.15;;
78365;SDS011;67641;59.864;30.464;2023-09-19T13:32:45;12.27;;;3.70;;
78365;SDS011;67641;59.864;30.464;2023-09-19T13:35:14;9.80;;;3.70;;
78365;SDS011;67641;59.864;30.464;2023-09-19T13:37:41;11.80;;;3.92;;
78365;SDS011;67641;59.864;30.464;2023-09-19T13:40:12;13.20;;;3.90;;
78365;SDS011;67641;59.864;30.464;2023-09-19T13:42:40;12.25;;;3.78;;
78365;SDS011;67641;59.864;30.464;2023-09-19T13:45:07;10.25;;;4.25;;
78365;SDS011;67641;59.864;30.464;2023-09-19T13:47:38;9.48;;;4.15;;
78365;SDS011;67641;59.864;30.464;2023-09-19T13:50:05;8.40;;;3.63;;
78365;SDS011;67641;59.864;30.464;2023-09-19T13:52:32;10.93;;;3.85;;
78365;SDS011;67641;59.864;30.464;2023-09-19T13:54:58;8.07;;;3.83;;
78365;SDS011;67641;59.864;30.464;2023-09-19T13:57:25;11.23;;;3.92;;
78365;SDS011;67641;59.864;30.464;2023-09-19T13:59:52;11.68;;;4.65;;
78365;SDS011;67641;59.864;30.464;2023-09-19T14:02:23;7.63;;;3.80;;
78365;SDS011;67641;59.864;30.464;2023-09-19T14:04:51;8.52;;;3.72;;
78365;SDS011;67641;59.864;30.464;2023-09-19T14:07:18;11.80;;;3.67;;
78365;SDS011;67641;59.864;30.464;2023-09-19T14:09:46;12.00;;;4.05;;
78365;SDS011;67641;59.864;30.464;2023-09-19T14:12:13;15.18;;;4.20;;
78365;SDS011;67641;59.864;30.464;2023-09-19T14:14:40;12.32;;;4.25;;
78365;SDS011;67641;59.864;30.464;2023-09-19T14:17:06;12.90;;;3.83;;
78365;SDS011;67641;59.864;30.464;2023-09-19T14:19:33;14.07;;;3.90;;
78365;SDS011;67641;59.864;30.464;2023-09-19T14:22:00;12.60;;;4.40;;
78365;SDS011;67641;59.864;30.464;2023-09-19T14:24:33;10.90;;;4.00;;
78365;SDS011;67641;59.864;30.464;2023-09-19T14:27:00;11.75;;;3.50;;
78365;SDS011;67641;59.864;30.464;2023-09-19T14:29:27;8.70;;;3.83;;
78365;SDS011;67641;59.864;30.464;2023-09-19T14:31:54;10.77;;;4.05;;
78365;SDS011;67641;59.864;30.464;2023-09-19T14:34:23;10.48;;;3.92;;
78365;SDS011;67641;59.864;30.464;2023-09-19T14:36:49;12.93;;;4.32;;
78365;SDS011;67641;59.864;30.464;2023-09-19T14:39:16;12.18;;;4.13;;
78365;SDS011;67641;59.864;30.464;2023-09-19T14:41:42;12.77;;;4.57;;
78365;SDS011;67641;59.864;30.464;2023-09-19T14:44:08;13.02;;;4.28;;
78365;SDS011;67641;59.864;30.464;2023-09-19T14:46:36;9.50;;;3.80;;
78365;SDS011;67641;59.864;30.464;2023-09-19T14:49:03;13.25;;;4.13;;
78365;SDS011;67641;59.864;30.464;2023-09-19T14:51:30;10.50;;;4.05;;
78365;SDS011;67641;59.864;30.464;2023-09-19T14:53:57;10.00;;;3.90;;
78365;SDS011;67641;59.864;30.464;2023-09-19T14:56:24;11.32;;;3.70;;
78365;SDS011;67641;59.864;30.464;2023-09-19T14:58:51;10.75;;;3.72;;
78365;SDS011;67641;59.864;30.464;2023-09-19T15:01:17;14.15;;;3.78;;
78365;SDS011;67641;59.864;30.464;2023-09-19T15:03:44;11.20;;;4.03;;
78365;SDS011;67641;59.864;30.464;2023-09-19T15:06:12;9.80;;;3.53;;
78365;SDS011;67641;59.864;30.464;2023-09-19T15:08:46;11.02;;;4.45;;
78365;SDS011;67641;59.864;30.464;2023-09-19T15:11:14;11.30;;;4.57;;
78365;SDS011;67641;59.864;30.464;2023-09-19T15:13:43;8.40;;;3.60;;
78365;SDS011;67641;59.864;30.464;2023-09-19T15:16:10;11.50;;;4.72;;
78365;SDS011;67641;59.864;30.464;2023-09-19T15:18:39;10.65;;;4.38;;
78365;SDS011;67641;59.864;30.464;2023-09-19T15:21:07;14.00;;;4.63;;
78365;SDS011;67641;59.864;30.464;2023-09-19T15:23:36;10.15;;;4.03;;
78365;SDS011;67641;59.864;30.464;2023-09-19T15:26:04;12.10;;;4.10;;
78365;SDS011;67641;59.864;30.464;2023-09-19T15:28:31;11.52;;;3.78;;
78365;SDS011;67641;59.864;30.464;2023-09-19T15:33:27;8.60;;;3.90;;
78365;SDS011;67641;59.864;30.464;2023-09-19T15:36:07;11.27;;;4.55;;
78365;SDS011;67641;59.864;30.464;2023-09-19T15:41:26;15.02;;;3.67;;
78365;SDS011;67641;59.864;30.464;2023-09-19T15:44:15;11.00;;;4.10;;
78365;SDS011;67641;59.864;30.464;2023-09-19T15:46:42;10.68;;;4.07;;
78365;SDS011;67641;59.864;30.464;2023-09-19T15:49:10;11.73;;;4.53;;